sensor_id;sensor_type;location;lat;lon;timestamp;pressure;altitude;pressure_sealevel;temperature;humidity
47815;BME280;33579;50.058;18.130;2024-03-29T00:00:01;97948.66;;;8.61;100.00
47815;BME280;33579;50.058;18.130;2024-03-29T00:01:02;97958.53;;;8.67;100.00
47815;BME280;33579;50.058;18.130;2024-03-29T00:02:03;97954.34;;;8.75;100.00
47815;BME280;33579;50.058;18.130;2024-03-29T00:03:04;97955.84;;;8.77;100.00
47815;BME280;33579;50.058;18.130;2024-03-29T00:04:05;97957.31;;;8.80;100.00
47815;BME280;33579;50.058;18.130;2024-03-29T00:05:05;97959.94;;;8.80;100.00
47815;BME280;33579;50.058;18.130;2024-03-29T00:06:06;97966.03;;;8.80;100.00
47815;BME280;33579;50.058;18.130;2024-03-29T00:07:07;97963.41;;;8.80;100.00
47815;BME280;33579;50.058;18.130;2024-03-29T00:08:08;97963.41;;;8.80;100.00
47815;BME280;33579;50.058;18.130;2024-03-29T00:09:08;97971.94;;;8.82;100.00
47815;BME280;33579;50.058;18.130;2024-03-29T00:10:09;97974.34;;;8.76;100.00
47815;BME280;33579;50.058;18.130;2024-03-29T00:11:10;97970.22;;;8.73;100.00
47815;BME280;33579;50.058;18.130;2024-03-29T00:12:11;97975.47;;;8.73;100.00
47815;BME280;33579;50.058;18.130;2024-03-29T00:13:11;97974.03;;;8.79;100.00
47815;BME280;33579;50.058;18.130;2024-03-29T00:14:12;97976.75;;;8.69;100.00
47815;BME280;33579;50.058;18.130;2024-03-29T00:15:13;97976.44;;;8.72;100.00
47815;BME280;33579;50.058;18.130;2024-03-29T00:16:14;97973.47;;;8.67;100.00
47815;BME280;33579;50.058;18.130;2024-03-29T00:17:14;97978.69;;;8.67;100.00
47815;BME280;33579;50.058;18.130;2024-03-29T00:18:15;97984.19;;;8.55;100.00
47815;BME280;33579;50.058;18.130;2024-03-29T00:19:16;97978.28;;;8.43;100.00
47815;BME280;33579;50.058;18.130;2024-03-29T00:20:17;97990.06;;;8.39;100.00
47815;BME280;33579;50.058;18.130;2024-03-29T00:21:17;97981.31;;;8.30;100.00
47815;BME280;33579;50.058;18.130;2024-03-29T00:22:18;97988.31;;;8.30;100.00
47815;BME280;33579;50.058;18.130;2024-03-29T00:23:19;97991.38;;;8.25;100.00
47815;BME280;33579;50.058;18.130;2024-03-29T00:24:20;97987.78;;;8.26;100.00
47815;BME280;33579;50.058;18.130;2024-03-29T00:25:20;97993.34;;;8.23;100.00
47815;BME280;33579;50.058;18.130;2024-03-29T00:26:21;97990.72;;;8.23;100.00
47815;BME280;33579;50.058;18.130;2024-03-29T00:27:22;97992.38;;;8.24;100.00
47815;BME280;33579;50.058;18.130;2024-03-29T00:28:23;97995.41;;;8.20;100.00
47815;BME280;33579;50.058;18.130;2024-03-29T00:29:23;97993.28;;;8.15;100.00
47815;BME280;33579;50.058;18.130;2024-03-29T00:30:24;97995.41;;;8.20;100.00
47815;BME280;33579;50.058;18.130;2024-03-29T00:31:25;98003.59;;;8.16;100.00
47815;BME280;33579;50.058;18.130;2024-03-29T00:32:25;98010.25;;;8.11;100.00
47815;BME280;33579;50.058;18.130;2024-03-29T00:33:26;98018.53;;;8.06;100.00
47815;BME280;33579;50.058;18.130;2024-03-29T00:34:27;98022.50;;;7.92;100.00
47815;BME280;33579;50.058;18.130;2024-03-29T00:35:28;98032.41;;;7.88;100.00
47815;BME280;33579;50.058;18.130;2024-03-29T00:36:29;98039.75;;;7.85;100.00
47815;BME280;33579;50.058;18.130;2024-03-29T00:37:29;98043.31;;;7.84;100.00
47815;BME280;33579;50.058;18.130;2024-03-29T00:38:30;98036.34;;;7.74;100.00
47815;BME280;33579;50.058;18.130;2024-03-29T00:39:31;98040.34;;;7.79;100.00
47815;BME280;33579;50.058;18.130;2024-03-29T00:40:31;98038.09;;;7.84;100.00
47815;BME280;33579;50.058;18.130;2024-03-29T00:41:32;98036.16;;;7.86;100.00
47815;BME280;33579;50.058;18.130;2024-03-29T00:42:33;98035.72;;;7.91;100.00
47815;BME280;33579;50.058;18.130;2024-03-29T00:43:34;98039.97;;;7.92;100.00
47815;BME280;33579;50.058;18.130;2024-03-29T00:44:35;98041.50;;;7.94;100.00
47815;BME280;33579;50.058;18.130;2024-03-29T00:45:36;98044.50;;;7.99;100.00
47815;BME280;33579;50.058;18.130;2024-03-29T00:46:36;98050.81;;;8.07;100.00
47815;BME280;33579;50.058;18.130;2024-03-29T00:47:37;98059.34;;;8.09;100.00
47815;BME280;33579;50.058;18.130;2024-03-29T00:48:38;98054.00;;;8.00;100.00
47815;BME280;33579;50.058;18.130;2024-03-29T00:49:39;98065.44;;;7.99;100.00
47815;BME280;33579;50.058;18.130;2024-03-29T00:50:40;98059.09;;;8.02;100.00
47815;BME280;33579;50.058;18.130;2024-03-29T00:51:40;98064.88;;;8.06;100.00
47815;BME280;33579;50.058;18.130;2024-03-29T00:52:41;98068.59;;;8.03;100.00
47815;BME280;33579;50.058;18.130;2024-03-29T00:53:42;98072.44;;;8.09;100.00
47815;BME280;33579;50.058;18.130;2024-03-29T00:54:43;98074.09;;;8.10;100.00
47815;BME280;33579;50.058;18.130;2024-03-29T00:55:43;98070.13;;;8.06;100.00
47815;BME280;33579;50.058;18.130;2024-03-29T00:56:44;98083.50;;;8.02;100.00
47815;BME280;33579;50.058;18.130;2024-03-29T00:57:45;98072.31;;;8.10;100.00
47815;BME280;33579;50.058;18.130;2024-03-29T00:58:46;98076.94;;;8.16;100.00
47815;BME280;33579;50.058;18.130;2024-03-29T00:59:46;98077.09;;;8.15;100.00
47815;BME280;33579;50.058;18.130;2024-03-29T01:00:47;98078.75;;;8.16;100.00
47815;BME280;33579;50.058;18.130;2024-03-29T01:01:49;98074.38;;;8.07;100.00
47815;BME280;33579;50.058;18.130;2024-03-29T01:02:50;98079.22;;;8.01;100.00
47815;BME280;33579;50.058;18.130;2024-03-29T01:03:50;98077.28;;;8.04;100.00
47815;BME280;33579;50.058;18.130;2024-03-29T01:04:51;98083.03;;;8.07;100.00
47815;BME280;33579;50.058;18.130;2024-03-29T01:05:52;98080.84;;;8.12;100.00
47815;BME280;33579;50.058;18.130;2024-03-29T01:06:52;98088.41;;;8.15;100.00
47815;BME280;33579;50.058;18.130;2024-03-29T01:07:53;98091.06;;;8.06;100.00
47815;BME280;33579;50.058;18.130;2024-03-29T01:08:54;98091.50;;;8.01;100.00
47815;BME280;33579;50.058;18.130;2024-03-29T01:09:55;98098.88;;;7.87;100.00
47815;BME280;33579;50.058;18.130;2024-03-29T01:10:55;98098.88;;;7.78;100.00
47815;BME280;33579;50.058;18.130;2024-03-29T01:11:56;98099.75;;;7.68;100.00
47815;BME280;33579;50.058;18.130;2024-03-29T01:12:57;98099.63;;;7.60;100.00
47815;BME280;33579;50.058;18.130;2024-03-29T01:13:58;98106.50;;;7.61;100.00
47815;BME280;33579;50.058;18.130;2024-03-29T01:14:59;98103.47;;;7.66;100.00
47815;BME280;33579;50.058;18.130;2024-03-29T01:15:59;98104.19;;;7.58;100.00
47815;BME280;33579;50.058;18.130;2024-03-29T01:17:00;98108.75;;;7.56;100.00
47815;BME280;33579;50.058;18.130;2024-03-29T01:18:01;98106.81;;;7.58;100.00
47815;BME280;33579;50.058;18.130;2024-03-29T01:19:02;98109.00;;;7.53;100.00
47815;BME280;33579;50.058;18.130;2024-03-29T01:20:02;98108.31;;;7.51;100.00
47815;BME280;33579;50.058;18.130;2024-03-29T01:21:03;98105.31;;;7.45;100.00
47815;BME280;33579;50.058;18.130;2024-03-29T01:22:04;98111.22;;;7.48;100.00
47815;BME280;33579;50.058;18.130;2024-03-29T01:23:05;98103.38;;;7.48;100.00
47815;BME280;33579;50.058;18.130;2024-03-29T01:24:05;98117.97;;;7.50;100.00
47815;BME280;33579;50.058;18.130;2024-03-29T01:25:06;98111.09;;;7.39;100.00
47815;BME280;33579;50.058;18.130;2024-03-29T01:26:08;98110.97;;;7.31;100.00
47815;BME280;33579;50.058;18.130;2024-03-29T01:27:09;98113.84;;;7.28;100.00
47815;BME280;33579;50.058;18.130;2024-03-29T01:28:10;98112.75;;;7.30;100.00
47815;BME280;33579;50.058;18.130;2024-03-29T01:29:10;98115.09;;;7.34;100.00
47815;BME280;33579;50.058;18.130;2024-03-29T01:30:11;98124.19;;;7.29;100.00
47815;BME280;33579;50.058;18.130;2024-03-29T01:31:12;98125.44;;;7.25;100.00
47815;BME280;33579;50.058;18.130;2024-03-29T01:32:13;98124.88;;;7.22;100.00
47815;BME280;33579;50.058;18.130;2024-03-29T01:33:13;98133.03;;;7.19;100.00
47815;BME280;33579;50.058;18.130;2024-03-29T01:34:14;98129.00;;;7.14;100.00
47815;BME280;33579;50.058;18.130;2024-03-29T01:35:15;98131.22;;;7.09;100.00
47815;BME280;33579;50.058;18.130;2024-03-29T01:36:15;98131.34;;;7.08;100.00
47815;BME280;33579;50.058;18.130;2024-03-29T01:37:16;98136.75;;;7.06;100.00
47815;BME280;33579;50.058;18.130;2024-03-29T01:38:17;98140.03;;;7.08;100.00
47815;BME280;33579;50.058;18.130;2024-03-29T01:39:18;98138.94;;;7.11;100.00
47815;BME280;33579;50.058;18.130;2024-03-29T01:40:18;98136.88;;;7.05;100.00
47815;BME280;33579;50.058;18.130;2024-03-29T01:41:19;98135.78;;;7.07;100.00
47815;BME280;33579;50.058;18.130;2024-03-29T01:42:20;98147.19;;;7.06;100.00
47815;BME280;33579;50.058;18.130;2024-03-29T01:43:21;98151.47;;;7.07;100.00
47815;BME280;33579;50.058;18.130;2024-03-29T01:44:22;98153.53;;;7.03;100.00
47815;BME280;33579;50.058;18.130;2024-03-29T01:45:23;98155.19;;;7.05;100.00
47815;BME280;33579;50.058;18.130;2024-03-29T01:46:24;98154.38;;;7.04;100.00
47815;BME280;33579;50.058;18.130;2024-03-29T01:47:24;98160.00;;;6.99;100.00
47815;BME280;33579;50.058;18.130;2024-03-29T01:48:26;98162.34;;;7.02;100.00
47815;BME280;33579;50.058;18.130;2024-03-29T01:49:29;98159.03;;;7.10;100.00
47815;BME280;33579;50.058;18.130;2024-03-29T01:50:31;98162.63;;;7.09;100.00
47815;BME280;33579;50.058;18.130;2024-03-29T01:51:36;98168.13;;;7.06;100.00
47815;BME280;33579;50.058;18.130;2024-03-29T01:52:39;98171.44;;;7.08;100.00
47815;BME280;33579;50.058;18.130;2024-03-29T01:53:40;98187.00;;;7.20;100.00
47815;BME280;33579;50.058;18.130;2024-03-29T01:54:42;98188.91;;;7.27;100.00
47815;BME280;33579;50.058;18.130;2024-03-29T01:55:43;98185.06;;;7.31;100.00
47815;BME280;33579;50.058;18.130;2024-03-29T01:56:44;98194.56;;;7.32;100.00
47815;BME280;33579;50.058;18.130;2024-03-29T01:57:45;98198.69;;;7.35;100.00
47815;BME280;33579;50.058;18.130;2024-03-29T01:58:48;98193.16;;;7.38;100.00
47815;BME280;33579;50.058;18.130;2024-03-29T01:59:50;98195.94;;;7.47;100.00
47815;BME280;33579;50.058;18.130;2024-03-29T02:00:52;98194.28;;;7.45;100.00
47815;BME280;33579;50.058;18.130;2024-03-29T02:01:53;98200.34;;;7.36;100.00
47815;BME280;33579;50.058;18.130;2024-03-29T02:02:54;98205.28;;;7.39;100.00
47815;BME280;33579;50.058;18.130;2024-03-29T02:03:56;98208.19;;;7.46;100.00
47815;BME280;33579;50.058;18.130;2024-03-29T02:04:56;98210.13;;;7.54;100.00
47815;BME280;33579;50.058;18.130;2024-03-29T02:05:58;98207.34;;;7.55;100.00
47815;BME280;33579;50.058;18.130;2024-03-29T02:06:59;98213.28;;;7.48;100.00
47815;BME280;33579;50.058;18.130;2024-03-29T02:08:00;98212.19;;;7.50;100.00
47815;BME280;33579;50.058;18.130;2024-03-29T02:09:01;98212.31;;;7.49;100.00
47815;BME280;33579;50.058;18.130;2024-03-29T02:10:03;98204.59;;;7.37;100.00
47815;BME280;33579;50.058;18.130;2024-03-29T02:11:04;98211.66;;;7.37;100.00
47815;BME280;33579;50.058;18.130;2024-03-29T02:12:05;98213.84;;;7.31;100.00
47815;BME280;33579;50.058;18.130;2024-03-29T02:13:05;98221.56;;;7.23;100.00
47815;BME280;33579;50.058;18.130;2024-03-29T02:14:06;98220.44;;;7.26;100.00
47815;BME280;33579;50.058;18.130;2024-03-29T02:15:07;98224.19;;;7.23;100.00
47815;BME280;33579;50.058;18.130;2024-03-29T02:16:08;98223.22;;;7.24;100.00
47815;BME280;33579;50.058;18.130;2024-03-29T02:17:09;98224.56;;;7.28;100.00
47815;BME280;33579;50.058;18.130;2024-03-29T02:18:09;98223.63;;;7.20;100.00
47815;BME280;33579;50.058;18.130;2024-03-29T02:19:10;98233.34;;;7.08;100.00
47815;BME280;33579;50.058;18.130;2024-03-29T02:20:11;98234.03;;;7.00;100.00
47815;BME280;33579;50.058;18.130;2024-03-29T02:21:12;98236.34;;;6.93;100.00
47815;BME280;33579;50.058;18.130;2024-03-29T02:22:15;98230.72;;;6.88;100.00
47815;BME280;33579;50.058;18.130;2024-03-29T02:23:20;98239.78;;;6.84;100.00
47815;BME280;33579;50.058;18.130;2024-03-29T02:24:25;98238.13;;;6.83;100.00
47815;BME280;33579;50.058;18.130;2024-03-29T02:25:26;98242.53;;;6.82;100.00
47815;BME280;33579;50.058;18.130;2024-03-29T02:26:27;98234.81;;;6.81;100.00
47815;BME280;33579;50.058;18.130;2024-03-29T02:27:28;98233.56;;;6.85;100.00
47815;BME280;33579;50.058;18.130;2024-03-29T02:28:30;98229.06;;;6.87;100.00
47815;BME280;33579;50.058;18.130;2024-03-29T02:29:30;98238.00;;;6.84;100.00
47815;BME280;33579;50.058;18.130;2024-03-29T02:30:31;98242.25;;;6.75;100.00
47815;BME280;33579;50.058;18.130;2024-03-29T02:31:32;98242.09;;;6.77;100.00
47815;BME280;33579;50.058;18.130;2024-03-29T02:32:33;98247.88;;;6.81;100.00
47815;BME280;33579;50.058;18.130;2024-03-29T02:33:34;98243.75;;;6.78;100.00
47815;BME280;33579;50.058;18.130;2024-03-29T02:34:34;98252.16;;;6.82;100.00
47815;BME280;33579;50.058;18.130;2024-03-29T02:35:35;98246.81;;;6.83;100.00
47815;BME280;33579;50.058;18.130;2024-03-29T02:36:36;98251.63;;;6.88;100.00
47815;BME280;33579;50.058;18.130;2024-03-29T02:37:37;98259.09;;;6.93;100.00
47815;BME280;33579;50.058;18.130;2024-03-29T02:38:37;98262.91;;;6.88;100.00
47815;BME280;33579;50.058;18.130;2024-03-29T02:39:38;98259.88;;;6.83;100.00
47815;BME280;33579;50.058;18.130;2024-03-29T02:40:39;98263.31;;;6.84;100.00
47815;BME280;33579;50.058;18.130;2024-03-29T02:41:39;98262.75;;;6.80;100.00
47815;BME280;33579;50.058;18.130;2024-03-29T02:42:40;98271.72;;;6.87;100.00
47815;BME280;33579;50.058;18.130;2024-03-29T02:43:41;98261.69;;;6.93;100.00
47815;BME280;33579;50.058;18.130;2024-03-29T02:44:41;98265.41;;;7.00;100.00
47815;BME280;33579;50.058;18.130;2024-03-29T02:45:43;98264.44;;;7.01;100.00
47815;BME280;33579;50.058;18.130;2024-03-29T02:46:43;98270.38;;;7.03;100.00
47815;BME280;33579;50.058;18.130;2024-03-29T02:47:44;98267.34;;;7.08;100.00
47815;BME280;33579;50.058;18.130;2024-03-29T02:48:45;98268.88;;;7.10;100.00
47815;BME280;33579;50.058;18.130;2024-03-29T02:49:45;98270.41;;;7.13;100.00
47815;BME280;33579;50.058;18.130;2024-03-29T02:50:46;98268.03;;;7.10;100.00
47815;BME280;33579;50.058;18.130;2024-03-29T02:51:47;98266.16;;;7.12;100.00
47815;BME280;33579;50.058;18.130;2024-03-29T02:52:48;98257.47;;;7.11;100.00
47815;BME280;33579;50.058;18.130;2024-03-29T02:53:48;98260.94;;;7.22;100.00
47815;BME280;33579;50.058;18.130;2024-03-29T02:54:49;98263.25;;;7.25;100.00
47815;BME280;33579;50.058;18.130;2024-03-29T02:55:50;98263.94;;;7.27;100.00
47815;BME280;33579;50.058;18.130;2024-03-29T02:56:51;98260.09;;;7.21;100.00
47815;BME280;33579;50.058;18.130;2024-03-29T02:57:51;98261.31;;;7.17;100.00
47815;BME280;33579;50.058;18.130;2024-03-29T02:58:52;98261.59;;;7.14;100.00
47815;BME280;33579;50.058;18.130;2024-03-29T02:59:53;98257.34;;;7.13;100.00
47815;BME280;33579;50.058;18.130;2024-03-29T03:00:54;98253.06;;;7.12;100.00
47815;BME280;33579;50.058;18.130;2024-03-29T03:01:54;98249.22;;;7.16;100.00
47815;BME280;33579;50.058;18.130;2024-03-29T03:02:55;98246.88;;;7.23;100.00
47815;BME280;33579;50.058;18.130;2024-03-29T03:03:56;98247.44;;;7.16;100.00
47815;BME280;33579;50.058;18.130;2024-03-29T03:04:56;98242.22;;;7.16;100.00
47815;BME280;33579;50.058;18.130;2024-03-29T03:05:57;98239.59;;;7.16;100.00
47815;BME280;33579;50.058;18.130;2024-03-29T03:06:58;98239.16;;;7.21;100.00
47815;BME280;33579;50.058;18.130;2024-03-29T03:07:58;98233.53;;;7.26;100.00
47815;BME280;33579;50.058;18.130;2024-03-29T03:08:59;98237.09;;;7.25;100.00
47815;BME280;33579;50.058;18.130;2024-03-29T03:10:00;98238.34;;;7.21;100.00
47815;BME280;33579;50.058;18.130;2024-03-29T03:11:01;98239.16;;;7.21;100.00
47815;BME280;33579;50.058;18.130;2024-03-29T03:12:01;98238.63;;;7.17;100.00
47815;BME280;33579;50.058;18.130;2024-03-29T03:13:02;98240.81;;;7.22;100.00
47815;BME280;33579;50.058;18.130;2024-03-29T03:14:03;98248.41;;;7.25;100.00
47815;BME280;33579;50.058;18.130;2024-03-29T03:15:04;98245.63;;;7.27;100.00
47815;BME280;33579;50.058;18.130;2024-03-29T03:16:05;98243.56;;;7.30;100.00
47815;BME280;33579;50.058;18.130;2024-03-29T03:17:06;98252.78;;;7.25;100.00
47815;BME280;33579;50.058;18.130;2024-03-29T03:18:06;98247.84;;;7.22;100.00
47815;BME280;33579;50.058;18.130;2024-03-29T03:19:07;98249.50;;;7.23;100.00
47815;BME280;33579;50.058;18.130;2024-03-29T03:20:08;98251.03;;;7.25;100.00
47815;BME280;33579;50.058;18.130;2024-03-29T03:21:09;98258.88;;;7.25;100.00
47815;BME280;33579;50.058;18.130;2024-03-29T03:22:10;98255.00;;;7.20;100.00
47815;BME280;33579;50.058;18.130;2024-03-29T03:23:10;98258.31;;;7.22;100.00
47815;BME280;33579;50.058;18.130;2024-03-29T03:24:11;98259.94;;;7.13;100.00
47815;BME280;33579;50.058;18.130;2024-03-29T03:25:12;98255.41;;;7.05;100.00
47815;BME280;33579;50.058;18.130;2024-03-29T03:26:12;98258.53;;;6.99;100.00
47815;BME280;33579;50.058;18.130;2024-03-29T03:27:13;98258.94;;;6.94;100.00
47815;BME280;33579;50.058;18.130;2024-03-29T03:28:14;98254.38;;;6.96;100.00
47815;BME280;33579;50.058;18.130;2024-03-29T03:29:15;98259.59;;;6.86;100.00
47815;BME280;33579;50.058;18.130;2024-03-29T03:30:15;98261.41;;;6.86;100.00
47815;BME280;33579;50.058;18.130;2024-03-29T03:31:16;98259.31;;;6.80;100.00
47815;BME280;33579;50.058;18.130;2024-03-29T03:32:17;98256.00;;;6.78;100.00
47815;BME280;33579;50.058;18.130;2024-03-29T03:33:19;98259.56;;;6.77;100.00
47815;BME280;33579;50.058;18.130;2024-03-29T03:34:20;98255.31;;;6.75;100.00
47815;BME280;33579;50.058;18.130;2024-03-29T03:35:21;98257.22;;;6.73;100.00
47815;BME280;33579;50.058;18.130;2024-03-29T03:36:21;98254.31;;;6.67;100.00
47815;BME280;33579;50.058;18.130;2024-03-29T03:37:22;98253.19;;;6.59;100.00
47815;BME280;33579;50.058;18.130;2024-03-29T03:38:23;98259.75;;;6.54;100.00
47815;BME280;33579;50.058;18.130;2024-03-29T03:39:23;98252.69;;;6.44;100.00
47815;BME280;33579;50.058;18.130;2024-03-29T03:40:24;98257.94;;;6.44;100.00
47815;BME280;33579;50.058;18.130;2024-03-29T03:41:25;98256.00;;;6.46;100.00
47815;BME280;33579;50.058;18.130;2024-03-29T03:42:25;98256.00;;;6.46;100.00
47815;BME280;33579;50.058;18.130;2024-03-29T03:43:26;98262.06;;;6.47;100.00
47815;BME280;33579;50.058;18.130;2024-03-29T03:44:27;98274.06;;;6.50;100.00
47815;BME280;33579;50.058;18.130;2024-03-29T03:45:28;98274.88;;;6.50;100.00
47815;BME280;33579;50.058;18.130;2024-03-29T03:46:29;98275.41;;;6.44;100.00
47815;BME280;33579;50.058;18.130;2024-03-29T03:47:30;98274.25;;;6.37;100.00
47815;BME280;33579;50.058;18.130;2024-03-29T03:48:31;98278.09;;;6.32;100.00
47815;BME280;33579;50.058;18.130;2024-03-29T03:49:31;98277.31;;;6.21;100.00
47815;BME280;33579;50.058;18.130;2024-03-29T03:50:32;98282.16;;;6.25;100.00
47815;BME280;33579;50.058;18.130;2024-03-29T03:51:33;98283.44;;;6.31;100.00
47815;BME280;33579;50.058;18.130;2024-03-29T03:52:34;98282.06;;;6.27;100.00
47815;BME280;33579;50.058;18.130;2024-03-29T03:53:35;98282.31;;;6.24;100.00
47815;BME280;33579;50.058;18.130;2024-03-29T03:54:35;98275.16;;;6.26;100.00
47815;BME280;33579;50.058;18.130;2024-03-29T03:55:37;98284.28;;;6.31;100.00
47815;BME280;33579;50.058;18.130;2024-03-29T03:56:37;98284.97;;;6.33;100.00
47815;BME280;33579;50.058;18.130;2024-03-29T03:57:38;98276.88;;;6.37;100.00
47815;BME280;33579;50.058;18.130;2024-03-29T03:58:39;98283.31;;;6.32;100.00
47815;BME280;33579;50.058;18.130;2024-03-29T03:59:39;98279.88;;;6.32;100.00
47815;BME280;33579;50.058;18.130;2024-03-29T04:00:40;98282.16;;;6.25;100.00
47815;BME280;33579;50.058;18.130;2024-03-29T04:01:41;98282.53;;;6.21;100.00
47815;BME280;33579;50.058;18.130;2024-03-29T04:02:51;98284.09;;;6.23;100.00
47815;BME280;33579;50.058;18.130;2024-03-29T04:03:52;98284.78;;;6.25;100.00
47815;BME280;33579;50.058;18.130;2024-03-29T04:04:52;98282.31;;;6.24;100.00
47815;BME280;33579;50.058;18.130;2024-03-29T04:05:53;98282.31;;;6.24;100.00
47815;BME280;33579;50.058;18.130;2024-03-29T04:06:54;98284.34;;;6.20;100.00
47815;BME280;33579;50.058;18.130;2024-03-29T04:07:55;98275.34;;;6.13;100.00
47815;BME280;33579;50.058;18.130;2024-03-29T04:08:55;98286.88;;;6.10;100.00
47815;BME280;33579;50.058;18.130;2024-03-29T04:09:56;98283.66;;;6.18;100.00
47815;BME280;33579;50.058;18.130;2024-03-29T04:10:57;98286.13;;;6.19;100.00
47815;BME280;33579;50.058;18.130;2024-03-29T04:11:58;98302.16;;;6.15;100.00
47815;BME280;33579;50.058;18.130;2024-03-29T04:12:58;98303.38;;;6.11;100.00
47815;BME280;33579;50.058;18.130;2024-03-29T04:13:59;98306.56;;;6.14;100.00
47815;BME280;33579;50.058;18.130;2024-03-29T04:15:00;98294.47;;;6.13;100.00
47815;BME280;33579;50.058;18.130;2024-03-29T04:16:04;98308.34;;;6.14;100.00
47815;BME280;33579;50.058;18.130;2024-03-29T04:17:05;98305.72;;;6.14;100.00
47815;BME280;33579;50.058;18.130;2024-03-29T04:18:06;98307.81;;;5.99;100.00
47815;BME280;33579;50.058;18.130;2024-03-29T04:19:07;98303.47;;;5.88;100.00
47815;BME280;33579;50.058;18.130;2024-03-29T04:20:08;98303.84;;;5.83;100.00
47815;BME280;33579;50.058;18.130;2024-03-29T04:21:09;98300.75;;;5.89;100.00
47815;BME280;33579;50.058;18.130;2024-03-29T04:22:09;98297.81;;;5.83;100.00
47815;BME280;33579;50.058;18.130;2024-03-29T04:23:10;98301.16;;;5.73;100.00
47815;BME280;33579;50.058;18.130;2024-03-29T04:24:11;98299.56;;;5.82;100.00
47815;BME280;33579;50.058;18.130;2024-03-29T04:25:12;98309.53;;;5.88;100.00
47815;BME280;33579;50.058;18.130;2024-03-29T04:26:13;98319.50;;;5.83;100.00
47815;BME280;33579;50.058;18.130;2024-03-29T04:27:14;98318.53;;;5.84;100.00
47815;BME280;33579;50.058;18.130;2024-03-29T04:28:14;98328.53;;;5.79;100.00
47815;BME280;33579;50.058;18.130;2024-03-29T04:29:15;98328.28;;;5.82;100.00
47815;BME280;33579;50.058;18.130;2024-03-29T04:30:16;98326.16;;;5.87;100.00
47815;BME280;33579;50.058;18.130;2024-03-29T04:31:16;98330.59;;;5.97;100.00
47815;BME280;33579;50.058;18.130;2024-03-29T04:32:17;98324.91;;;6.03;100.00
47815;BME280;33579;50.058;18.130;2024-03-29T04:33:18;98335.69;;;6.10;100.00
47815;BME280;33579;50.058;18.130;2024-03-29T04:34:18;98330.00;;;6.04;100.00
47815;BME280;33579;50.058;18.130;2024-03-29T04:35:19;98340.59;;;6.03;100.00
47815;BME280;33579;50.058;18.130;2024-03-29T04:36:20;98335.75;;;5.87;100.00
47815;BME280;33579;50.058;18.130;2024-03-29T04:37:20;98337.28;;;5.89;100.00
47815;BME280;33579;50.058;18.130;2024-03-29T04:38:22;98336.59;;;5.87;100.00
47815;BME280;33579;50.058;18.130;2024-03-29T04:39:22;98333.50;;;5.82;100.00
47815;BME280;33579;50.058;18.130;2024-03-29T04:40:23;98335.69;;;5.77;100.00
47815;BME280;33579;50.058;18.130;2024-03-29T04:41:24;98328.91;;;5.74;100.00
47815;BME280;33579;50.058;18.130;2024-03-29T04:42:24;98336.41;;;5.68;100.00
47815;BME280;33579;50.058;18.130;2024-03-29T04:43:27;98342.84;;;5.63;100.00
47815;BME280;33579;50.058;18.130;2024-03-29T04:44:28;98340.34;;;5.62;100.00
47815;BME280;33579;50.058;18.130;2024-03-29T04:45:29;98339.38;;;5.63;100.00
47815;BME280;33579;50.058;18.130;2024-03-29T04:46:30;98340.84;;;5.56;100.00
47815;BME280;33579;50.058;18.130;2024-03-29T04:47:31;98337.63;;;5.63;100.00
47815;BME280;33579;50.058;18.130;2024-03-29T04:48:32;98342.69;;;5.65;100.00
47815;BME280;33579;50.058;18.130;2024-03-29T04:49:33;98342.84;;;5.63;100.00
47815;BME280;33579;50.058;18.130;2024-03-29T04:50:33;98335.00;;;5.63;100.00
47815;BME280;33579;50.058;18.130;2024-03-29T04:51:34;98332.16;;;5.67;100.00
47815;BME280;33579;50.058;18.130;2024-03-29T04:52:35;98328.00;;;5.64;100.00
47815;BME280;33579;50.058;18.130;2024-03-29T04:53:36;98343.53;;;5.66;100.00
47815;BME280;33579;50.058;18.130;2024-03-29T04:54:37;98342.34;;;5.70;100.00
47815;BME280;33579;50.058;18.130;2024-03-29T04:55:38;98347.78;;;5.78;100.00
47815;BME280;33579;50.058;18.130;2024-03-29T04:56:38;98352.41;;;5.74;100.00
47815;BME280;33579;50.058;18.130;2024-03-29T04:57:39;98344.09;;;5.81;100.00
47815;BME280;33579;50.058;18.130;2024-03-29T04:58:40;98342.72;;;5.86;100.00
47815;BME280;33579;50.058;18.130;2024-03-29T04:59:41;98338.34;;;5.87;100.00
47815;BME280;33579;50.058;18.130;2024-03-29T05:00:42;98336.34;;;5.90;100.00
47815;BME280;33579;50.058;18.130;2024-03-29T05:01:43;98347.25;;;5.84;100.00
47815;BME280;33579;50.058;18.130;2024-03-29T05:02:44;98334.56;;;5.80;100.00
47815;BME280;33579;50.058;18.130;2024-03-29T05:03:45;98333.13;;;5.87;100.00
47815;BME280;33579;50.058;18.130;2024-03-29T05:04:46;98331.22;;;5.89;100.00
47815;BME280;33579;50.058;18.130;2024-03-29T05:05:46;98332.66;;;5.93;100.00
47815;BME280;33579;50.058;18.130;2024-03-29T05:06:47;98338.00;;;5.91;100.00
47815;BME280;33579;50.058;18.130;2024-03-29T05:07:48;98336.19;;;5.92;100.00
47815;BME280;33579;50.058;18.130;2024-03-29T05:08:48;98344.88;;;5.93;100.00
47815;BME280;33579;50.058;18.130;2024-03-29T05:09:49;98349.59;;;5.99;100.00
47815;BME280;33579;50.058;18.130;2024-03-29T05:10:50;98358.94;;;6.13;100.00
47815;BME280;33579;50.058;18.130;2024-03-29T05:11:52;98358.19;;;6.22;100.00
47815;BME280;33579;50.058;18.130;2024-03-29T05:12:52;98362.81;;;6.18;100.00
47815;BME280;33579;50.058;18.130;2024-03-29T05:13:53;98368.09;;;6.28;100.00
47815;BME280;33579;50.058;18.130;2024-03-29T05:14:54;98361.63;;;6.44;100.00
47815;BME280;33579;50.058;18.130;2024-03-29T05:15:54;98364.72;;;6.59;100.00
47815;BME280;33579;50.058;18.130;2024-03-29T05:16:55;98361.00;;;6.83;100.00
47815;BME280;33579;50.058;18.130;2024-03-29T05:17:56;98369.81;;;7.13;100.00